Time;durP1;ratioP1;P1;durP2;ratioP2;P2;SDS_P1;SDS_P2;PMS_P1;PMS_P2;Temp;Humidity;BMP_temperature;BMP_pressure;BME280_temperature;BME280_humidity;BME280_pressure;Samples;Min_cycle;Max_cycle;Signal;HPM_P1;HPM_P2
2023/12/22 00:01:31;;;;;;;5.68;4.43;;;7.00;68.20;;;;;;5137304;27;20031;-80
2023/12/22 00:03:56;;;;;;;5.35;4.10;;;7.00;68.20;;;;;;5105759;27;20034;-81
2023/12/22 00:06:22;;;;;;;6.70;4.70;;;7.00;68.20;;;;;;5137448;27;20456;-80
2023/12/22 00:08:48;;;;;;;6.03;4.05;;;7.00;68.20;;;;;;5109487;28;20542;-81
2023/12/22 00:11:14;;;;;;;5.90;4.30;;;7.10;68.30;;;;;;5116752;28;20073;-80
2023/12/22 00:13:40;;;;;;;5.25;4.20;;;7.10;68.20;;;;;;5117707;27;20027;-80
2023/12/22 00:16:06;;;;;;;5.53;4.25;;;7.10;68.10;;;;;;5118457;27;20031;-81
2023/12/22 00:18:32;;;;;;;5.03;3.70;;;7.20;68.00;;;;;;5118542;27;20429;-80
2023/12/22 00:20:57;;;;;;;5.07;4.20;;;7.20;68.00;;;;;;5117468;27;20382;-81
2023/12/22 00:23:23;;;;;;;6.00;4.30;;;7.20;67.90;;;;;;5117467;27;20031;-82
2023/12/22 00:25:49;;;;;;;6.03;3.92;;;7.20;67.80;;;;;;5127239;27;20035;-81
2023/12/22 00:28:15;;;;;;;5.05;4.15;;;7.20;67.90;;;;;;5122756;27;20101;-79
2023/12/22 00:30:41;;;;;;;5.13;3.88;;;7.30;67.80;;;;;;5136265;27;20027;-81
2023/12/22 00:33:06;;;;;;;6.05;4.50;;;7.30;67.80;;;;;;5136238;27;20015;-81
2023/12/22 00:35:33;;;;;;;4.50;3.88;;;7.30;67.80;;;;;;5136537;27;20027;-81
2023/12/22 00:37:58;;;;;;;5.72;4.10;;;7.30;67.70;;;;;;5133303;27;20034;-79
2023/12/22 00:40:24;;;;;;;6.25;4.28;;;7.30;67.70;;;;;;5115658;27;20027;-81
2023/12/22 00:42:50;;;;;;;4.50;3.72;;;7.30;67.70;;;;;;5134953;27;20092;-81
2023/12/22 00:45:16;;;;;;;6.10;3.97;;;7.30;67.60;;;;;;5136199;27;20027;-81
2023/12/22 00:47:41;;;;;;;6.18;4.20;;;7.40;67.60;;;;;;5131468;27;20409;-81
2023/12/22 00:50:08;;;;;;;5.85;3.80;;;7.30;67.50;;;;;;5136093;27;20039;-81
2023/12/22 00:52:34;;;;;;;5.75;3.95;;;7.40;67.50;;;;;;5135745;27;20019;-81
2023/12/22 00:54:59;;;;;;;5.80;3.88;;;7.40;67.40;;;;;;5135716;27;20350;-82
2023/12/22 00:57:25;;;;;;;5.55;4.20;;;7.40;67.40;;;;;;5128462;27;20131;-80
2023/12/22 00:59:51;;;;;;;5.70;4.35;;;7.40;67.40;;;;;;5117957;27;20039;-80
2023/12/22 01:02:18;;;;;;;5.65;4.57;;;7.40;67.30;;;;;;5133853;27;20031;-81
2023/12/22 01:04:44;;;;;;;5.38;3.75;;;7.40;67.40;;;;;;5117491;27;20034;-81
2023/12/22 01:07:11;;;;;;;4.75;4.05;;;7.40;67.40;;;;;;5135843;27;20046;-81
2023/12/22 01:09:37;;;;;;;4.55;3.80;;;7.30;67.30;;;;;;5135977;27;20042;-79
2023/12/22 01:12:04;;;;;;;5.03;3.92;;;7.30;67.30;;;;;;5116444;27;20054;-80
2023/12/22 01:14:31;;;;;;;4.85;3.72;;;7.40;67.40;;;;;;5115654;28;20027;-81
2023/12/22 01:16:59;;;;;;;5.45;4.00;;;7.40;67.40;;;;;;5115574;27;20092;-81
2023/12/22 01:19:25;;;;;;;4.60;3.63;;;7.40;67.40;;;;;;5095371;28;20032;-80
2023/12/22 01:21:50;;;;;;;5.55;4.20;;;7.40;67.30;;;;;;5092366;27;20054;-81
2023/12/22 01:24:16;;;;;;;5.57;4.00;;;7.40;67.20;;;;;;5104093;27;20023;-81
2023/12/22 01:26:42;;;;;;;4.32;3.78;;;7.40;67.20;;;;;;5135622;27;20026;-81
2023/12/22 01:29:08;;;;;;;4.35;3.42;;;7.40;67.20;;;;;;5109730;28;20117;-81
2023/12/22 01:31:34;;;;;;;4.45;3.70;;;7.40;67.20;;;;;;5109443;27;20489;-79
2023/12/22 01:34:00;;;;;;;4.30;3.40;;;7.40;67.20;;;;;;5130295;27;20031;-80
2023/12/22 01:36:26;;;;;;;4.63;3.85;;;7.40;67.20;;;;;;5116554;27;20027;-81
2023/12/22 01:38:52;;;;;;;4.57;3.45;;;7.40;67.20;;;;;;5120890;27;20106;-80
2023/12/22 01:41:17;;;;;;;5.25;4.30;;;7.30;67.20;;;;;;5117651;27;20031;-78
2023/12/22 01:43:43;;;;;;;4.55;3.67;;;7.30;67.20;;;;;;5117267;27;20035;-80
2023/12/22 01:46:11;;;;;;;4.75;3.97;;;7.30;67.20;;;;;;5122193;27;20033;-81
2023/12/22 01:48:37;;;;;;;5.13;4.28;;;7.30;67.20;;;;;;5131637;27;20023;-80
2023/12/22 01:51:04;;;;;;;6.05;4.25;;;7.40;67.20;;;;;;5115961;27;20496;-81
2023/12/22 01:53:31;;;;;;;5.10;4.07;;;7.30;67.10;;;;;;5132608;27;20027;-84
2023/12/22 01:55:59;;;;;;;6.32;4.28;;;7.30;67.10;;;;;;5104597;28;20023;-81
2023/12/22 01:58:27;;;;;;;5.45;4.38;;;7.30;67.10;;;;;;5135111;27;20047;-81
2023/12/22 02:00:53;;;;;;;5.43;3.97;;;7.30;67.10;;;;;;5114877;27;20108;-82
2023/12/22 02:03:20;;;;;;;5.70;4.05;;;7.20;67.70;;;;;;5116112;27;20034;-79
2023/12/22 02:05:46;;;;;;;5.13;3.75;;;7.20;67.20;;;;;;5126153;27;20063;-82
2023/12/22 02:08:12;;;;;;;5.10;3.90;;;7.20;67.20;;;;;;5096320;28;20109;-81
2023/12/22 02:10:38;;;;;;;4.22;3.63;;;7.20;67.30;;;;;;5098671;27;20043;-78
2023/12/22 02:13:09;;;;;;;5.32;4.00;;;7.20;67.30;;;;;;5096199;28;20029;-79
2023/12/22 02:15:35;;;;;;;5.20;4.40;;;7.20;67.30;;;;;;5120266;28;20372;-79
2023/12/22 02:18:24;;;;;;;5.10;4.50;;;7.20;67.20;;;;;;5106014;28;20100;-81
2023/12/22 02:20:50;;;;;;;5.60;4.03;;;7.20;67.10;;;;;;5117910;27;20031;-80
2023/12/22 02:23:16;;;;;;;5.80;4.28;;;7.20;67.20;;;;;;5125272;28;20035;-81
2023/12/22 02:25:42;;;;;;;5.07;3.85;;;7.20;67.20;;;;;;5126122;28;20099;-82
2023/12/22 02:28:12;;;;;;;5.22;4.03;;;7.20;67.20;;;;;;5096333;28;20084;-83
2023/12/22 02:31:03;;;;;;;4.45;3.70;;;7.20;67.20;;;;;;5098121;28;20042;-79
2023/12/22 02:33:31;;;;;;;6.03;4.13;;;7.10;67.10;;;;;;5119620;28;20123;-79
2023/12/22 02:36:03;;;;;;;5.60;4.10;;;7.20;67.20;;;;;;5123114;28;20368;-81
2023/12/22 02:38:31;;;;;;;4.38;3.63;;;7.20;67.10;;;;;;5116163;28;20031;-80
2023/12/22 02:40:57;;;;;;;4.30;3.72;;;7.20;67.10;;;;;;5125769;28;20043;-81
2023/12/22 02:43:23;;;;;;;6.95;4.00;;;7.20;67.20;;;;;;5113857;28;20040;-81
2023/12/22 02:46:14;;;;;;;4.10;3.30;;;7.10;67.10;;;;;;5120730;28;20030;-80
2023/12/22 02:48:40;;;;;;;5.13;4.35;;;7.20;67.00;;;;;;5116142;28;20035;-81
2023/12/22 02:51:06;;;;;;;5.00;3.80;;;7.20;67.00;;;;;;5113083;28;20035;-81
2023/12/22 02:53:32;;;;;;;4.40;3.60;;;7.20;66.90;;;;;;5129535;27;20035;-80
2023/12/22 02:55:57;;;;;;;4.72;3.83;;;7.20;67.00;;;;;;5100658;28;20051;-79
2023/12/22 02:58:23;;;;;;;4.82;3.70;;;7.20;66.90;;;;;;5093997;28;20115;-80
2023/12/22 03:00:49;;;;;;;4.68;3.95;;;7.20;66.90;;;;;;5107835;28;20347;-81
2023/12/22 03:03:15;;;;;;;5.55;3.90;;;7.20;66.90;;;;;;5125227;28;20042;-82
2023/12/22 03:05:41;;;;;;;4.38;3.63;;;7.20;66.80;;;;;;5128647;27;20489;-80
2023/12/22 03:08:06;;;;;;;4.30;3.40;;;7.20;66.90;;;;;;5097628;28;20118;-81
2023/12/22 03:10:32;;;;;;;5.00;3.88;;;7.20;66.90;;;;;;5127370;27;20055;-80
2023/12/22 03:12:58;;;;;;;4.40;3.40;;;7.20;66.90;;;;;;5138108;27;20098;-80
2023/12/22 03:15:23;;;;;;;4.57;3.65;;;7.20;66.90;;;;;;5133850;27;20028;-81
2023/12/22 03:17:49;;;;;;;4.38;3.60;;;7.20;66.80;;;;;;5118840;27;20073;-80
2023/12/22 03:20:15;;;;;;;5.35;3.97;;;7.20;66.80;;;;;;5126055;27;20099;-80
2023/12/22 03:22:41;;;;;;;4.35;3.33;;;7.20;66.80;;;;;;5135301;27;20057;-80
2023/12/22 03:25:07;;;;;;;4.32;3.53;;;7.20;66.70;;;;;;5119610;27;20404;-80
2023/12/22 03:27:32;;;;;;;4.82;3.85;;;7.20;66.80;;;;;;5127683;27;20398;-81
2023/12/22 03:29:58;;;;;;;3.75;3.25;;;7.20;66.80;;;;;;5117732;28;20058;-81
2023/12/22 03:32:24;;;;;;;4.63;3.63;;;7.20;66.80;;;;;;5099918;27;20043;-81
2023/12/22 03:34:50;;;;;;;4.82;3.85;;;7.20;66.80;;;;;;5117530;28;20035;-80
2023/12/22 03:37:15;;;;;;;3.75;3.30;;;7.20;66.80;;;;;;5111333;27;20031;-80
2023/12/22 03:39:41;;;;;;;4.28;3.40;;;7.20;66.80;;;;;;5123301;27;20068;-80
2023/12/22 03:42:07;;;;;;;3.88;3.38;;;7.30;66.80;;;;;;5128577;27;20473;-81
2023/12/22 03:44:33;;;;;;;4.47;3.88;;;7.30;66.80;;;;;;5124907;27;20023;-80
2023/12/22 03:46:58;;;;;;;4.03;3.63;;;7.30;66.70;;;;;;5117467;27;20027;-79
2023/12/22 03:49:24;;;;;;;4.30;3.60;;;7.30;66.70;;;;;;5098918;28;20061;-81
2023/12/22 03:51:50;;;;;;;3.88;3.47;;;7.30;66.70;;;;;;5121336;27;20468;-80
2023/12/22 03:54:17;;;;;;;5.43;3.50;;;7.30;66.70;;;;;;5137102;27;20457;-81
2023/12/22 03:56:43;;;;;;;4.07;3.33;;;7.30;66.70;;;;;;5126627;27;20048;-80
2023/12/22 03:59:08;;;;;;;4.38;3.90;;;7.40;66.70;;;;;;5116392;28;20046;-82
2023/12/22 04:01:34;;;;;;;5.32;4.32;;;7.30;66.60;;;;;;5116879;27;20024;-81
2023/12/22 04:04:00;;;;;;;5.25;3.72;;;7.40;66.60;;;;;;5132817;27;20623;-81
2023/12/22 04:06:26;;;;;;;4.00;3.30;;;7.30;66.60;;;;;;5119015;27;20405;-79
2023/12/22 04:08:52;;;;;;;4.68;3.70;;;7.30;66.60;;;;;;5097921;27;20027;-80
2023/12/22 04:11:18;;;;;;;5.05;3.90;;;7.40;66.60;;;;;;5116229;28;20076;-81
2023/12/22 04:13:44;;;;;;;4.78;3.78;;;7.40;66.60;;;;;;5118104;27;20046;-81
2023/12/22 04:16:09;;;;;;;5.43;4.13;;;7.40;66.60;;;;;;5128839;27;20118;-82
2023/12/22 04:18:35;;;;;;;3.95;3.25;;;7.40;66.50;;;;;;5099938;27;20028;-81
2023/12/22 04:21:01;;;;;;;4.18;3.40;;;7.40;66.50;;;;;;5116796;27;20464;-79
2023/12/22 04:23:27;;;;;;;4.22;3.53;;;7.40;66.50;;;;;;5116095;27;20079;-81
2023/12/22 04:25:53;;;;;;;4.53;3.55;;;7.40;66.50;;;;;;5099890;27;20028;-79
2023/12/22 04:28:19;;;;;;;4.72;3.65;;;7.30;66.50;;;;;;5108589;28;20122;-81
2023/12/22 04:30:44;;;;;;;4.20;3.33;;;7.40;66.60;;;;;;5116585;28;20032;-81
2023/12/22 04:33:10;;;;;;;4.03;3.50;;;7.40;66.60;;;;;;5118652;27;20026;-81
2023/12/22 04:35:36;;;;;;;4.28;3.42;;;7.40;66.60;;;;;;5118088;27;20027;-81
2023/12/22 04:38:01;;;;;;;4.25;3.15;;;7.40;66.60;;;;;;5116678;27;20028;-79
2023/12/22 04:40:28;;;;;;;4.25;3.40;;;7.40;66.50;;;;;;5118307;27;20030;-80
2023/12/22 04:42:53;;;;;;;4.65;3.20;;;7.40;66.60;;;;;;5131457;27;20091;-81
2023/12/22 04:45:19;;;;;;;4.18;3.30;;;7.40;66.50;;;;;;5108656;27;20020;-80
2023/12/22 04:47:45;;;;;;;3.85;3.20;;;7.40;66.50;;;;;;5136569;27;20389;-82
2023/12/22 04:50:11;;;;;;;3.63;3.25;;;7.40;66.50;;;;;;5128375;27;20377;-82
2023/12/22 04:52:36;;;;;;;3.70;2.90;;;7.40;66.50;;;;;;5098323;28;20023;-80
2023/12/22 04:55:02;;;;;;;4.15;3.30;;;7.40;66.50;;;;;;5116115;28;20039;-80
2023/12/22 04:57:28;;;;;;;3.75;3.08;;;7.40;66.50;;;;;;5109385;27;20058;-81
2023/12/22 04:59:54;;;;;;;3.63;3.10;;;7.40;66.50;;;;;;5115804;28;20080;-80
2023/12/22 05:02:20;;;;;;;4.05;3.45;;;7.40;66.40;;;;;;5119618;27;20023;-81
2023/12/22 05:04:45;;;;;;;3.83;3.30;;;7.40;66.40;;;;;;5124324;27;20084;-82
2023/12/22 05:07:11;;;;;;;3.90;3.30;;;7.40;66.50;;;;;;5128006;27;20052;-81
2023/12/22 05:09:37;;;;;;;3.25;2.90;;;7.40;66.50;;;;;;5118876;27;20071;-80
2023/12/22 05:12:03;;;;;;;4.57;3.28;;;7.40;66.50;;;;;;5130277;27;20111;-80
2023/12/22 05:14:29;;;;;;;3.88;3.40;;;7.40;66.50;;;;;;5115224;28;20035;-79
2023/12/22 05:16:56;;;;;;;4.18;3.25;;;7.40;66.50;;;;;;5097966;27;20031;-82
2023/12/22 05:19:22;;;;;;;4.53;3.60;;;7.40;66.50;;;;;;5115138;28;20036;-80
2023/12/22 05:21:49;;;;;;;4.28;3.50;;;7.40;66.50;;;;;;5119696;27;20073;-77
2023/12/22 05:24:15;;;;;;;4.15;3.15;;;7.40;66.40;;;;;;5126639;27;20023;-75
2023/12/22 05:26:41;;;;;;;4.05;3.17;;;7.40;66.40;;;;;;5121924;27;20028;-76
2023/12/22 05:29:08;;;;;;;3.72;3.33;;;7.40;66.40;;;;;;5133764;27;20057;-76
2023/12/22 05:31:34;;;;;;;4.82;3.40;;;7.40;66.40;;;;;;5126021;27;20035;-75
2023/12/22 05:34:00;;;;;;;4.30;3.30;;;7.40;66.40;;;;;;5114719;27;20099;-75
2023/12/22 05:36:26;;;;;;;6.15;3.45;;;7.40;66.40;;;;;;5117451;27;20079;-76
2023/12/22 05:38:51;;;;;;;4.18;3.17;;;7.30;66.40;;;;;;5135217;27;20084;-76
2023/12/22 05:41:17;;;;;;;4.55;3.40;;;7.40;66.40;;;;;;5120983;27;20032;-77
2023/12/22 05:43:43;;;;;;;6.35;3.67;;;7.40;66.40;;;;;;5096997;28;20028;-82
2023/12/22 05:46:09;;;;;;;4.57;3.80;;;7.30;66.40;;;;;;5114746;28;20066;-79
2023/12/22 05:48:35;;;;;;;5.13;3.75;;;7.30;66.40;;;;;;5096883;28;20057;-86
2023/12/22 05:51:03;;;;;;;4.95;3.80;;;7.30;66.40;;;;;;5096867;28;20067;-74
2023/12/22 05:53:29;;;;;;;5.13;3.60;;;7.30;66.40;;;;;;5116106;27;20389;-83
2023/12/22 05:55:55;;;;;;;4.60;3.55;;;7.30;66.40;;;;;;5126003;27;20027;-74
2023/12/22 05:58:20;;;;;;;3.95;3.50;;;7.30;66.50;;;;;;5122292;27;20047;-78
2023/12/22 06:00:46;;;;;;;4.43;3.92;;;7.30;66.40;;;;;;5115735;27;20027;-76
2023/12/22 06:03:14;;;;;;;4.93;3.60;;;7.30;66.40;;;;;;5124488;27;20040;-76
2023/12/22 06:05:40;;;;;;;4.07;3.65;;;7.30;66.40;;;;;;5117946;27;20027;-75
2023/12/22 06:08:06;;;;;;;4.38;3.78;;;7.30;66.40;;;;;;5115211;27;20031;-77
2023/12/22 06:10:31;;;;;;;3.78;3.38;;;7.30;66.40;;;;;;5113692;28;20038;-77
2023/12/22 06:12:57;;;;;;;4.57;3.85;;;7.30;66.40;;;;;;5113106;28;20054;-76
2023/12/22 06:15:24;;;;;;;4.22;3.70;;;7.30;66.30;;;;;;5112930;28;20425;-75
2023/12/22 06:17:49;;;;;;;4.72;3.85;;;7.30;66.40;;;;;;5095878;28;20059;-75
2023/12/22 06:20:15;;;;;;;5.18;3.75;;;7.30;66.30;;;;;;5115851;28;20070;-75
2023/12/22 06:22:42;;;;;;;4.43;3.70;;;7.30;66.30;;;;;;5112929;28;20088;-76
2023/12/22 06:25:09;;;;;;;5.03;3.80;;;7.40;66.30;;;;;;5115285;28;20146;-76
2023/12/22 06:27:36;;;;;;;5.40;4.20;;;7.40;66.30;;;;;;5114108;28;20426;-76
2023/12/22 06:30:02;;;;;;;4.53;3.78;;;7.40;66.80;;;;;;5114485;28;20035;-76
2023/12/22 06:32:27;;;;;;;5.05;4.30;;;7.40;66.20;;;;;;5110884;28;20031;-77
2023/12/22 06:34:53;;;;;;;5.70;4.25;;;7.40;66.20;;;;;;5126032;27;20023;-80
2023/12/22 06:37:19;;;;;;;5.63;4.18;;;7.40;66.20;;;;;;5117241;28;20362;-83
2023/12/22 06:39:45;;;;;;;4.50;3.60;;;7.40;66.20;;;;;;5121795;28;20503;-82
2023/12/22 06:42:12;;;;;;;6.25;4.38;;;7.40;66.20;;;;;;5136024;27;20027;-83
2023/12/22 06:44:38;;;;;;;5.10;4.25;;;7.50;66.20;;;;;;5137800;27;20022;-80
2023/12/22 06:47:04;;;;;;;4.40;3.60;;;7.50;66.40;;;;;;5121739;27;20023;-82
2023/12/22 06:49:30;;;;;;;5.13;4.10;;;7.50;66.20;;;;;;5139972;27;20027;-82
2023/12/22 06:51:56;;;;;;;6.03;4.35;;;7.50;66.20;;;;;;5139245;27;20052;-81
2023/12/22 06:54:22;;;;;;;6.45;4.55;;;7.50;66.10;;;;;;5120431;27;20395;-79
2023/12/22 06:56:47;;;;;;;5.63;4.35;;;7.50;66.10;;;;;;5119739;27;20039;-78
2023/12/22 06:59:13;;;;;;;5.35;3.85;;;7.50;66.10;;;;;;5120021;27;20031;-77
2023/12/22 07:01:39;;;;;;;5.68;4.25;;;7.50;66.10;;;;;;5119734;27;20062;-78
2023/12/22 07:04:06;;;;;;;4.90;4.13;;;7.60;66.10;;;;;;5120126;27;20034;-78
2023/12/22 07:06:33;;;;;;;5.82;4.47;;;7.60;66.10;;;;;;5120493;27;20023;-80
2023/12/22 07:09:11;;;;;;;5.20;4.28;;;7.60;66.10;;;;;;5130619;27;20465;-85
2023/12/22 07:11:41;;;;;;;5.25;4.40;;;7.60;66.00;;;;;;5104901;27;20050;-85
2023/12/22 07:14:07;;;;;;;5.65;4.20;;;7.70;66.00;;;;;;5124764;27;20429;-77
2023/12/22 07:16:34;;;;;;;4.43;3.72;;;7.60;66.00;;;;;;5138565;27;20110;-78
2023/12/22 07:19:00;;;;;;;6.13;4.35;;;7.70;66.00;;;;;;5136108;27;20035;-77
2023/12/22 07:21:26;;;;;;;4.70;3.70;;;7.70;65.90;;;;;;5136092;27;20139;-76
2023/12/22 07:23:52;;;;;;;5.85;4.53;;;7.70;65.90;;;;;;5136039;27;20393;-75
2023/12/22 07:26:18;;;;;;;6.85;4.60;;;7.70;65.90;;;;;;5136462;27;20038;-76
2023/12/22 07:28:44;;;;;;;5.63;4.60;;;7.70;65.90;;;;;;5137910;27;20544;-74
2023/12/22 07:31:09;;;;;;;5.60;4.10;;;7.70;66.20;;;;;;5132416;27;20030;-75
2023/12/22 07:33:35;;;;;;;7.30;4.93;;;7.70;66.90;;;;;;5125842;27;20460;-75
2023/12/22 07:36:01;;;;;;;6.50;4.20;;;7.70;67.40;;;;;;5099359;28;20032;-75
2023/12/22 07:38:28;;;;;;;5.63;4.53;;;7.70;67.90;;;;;;5129125;27;20146;-74
2023/12/22 07:40:54;;;;;;;8.68;5.15;;;7.70;68.40;;;;;;5117059;28;20114;-74
2023/12/22 07:43:19;;;;;;;6.85;4.88;;;7.70;68.70;;;;;;5098910;28;20087;-75
2023/12/22 07:45:45;;;;;;;8.88;4.72;;;7.70;69.00;;;;;;5101219;27;20124;-74
2023/12/22 07:48:11;;;;;;;6.45;5.07;;;7.60;69.20;;;;;;5127110;27;20437;-74
2023/12/22 07:50:37;;;;;;;8.25;4.88;;;7.60;69.40;;;;;;5117282;28;20102;-75
2023/12/22 07:53:03;;;;;;;6.35;5.00;;;7.60;69.50;;;;;;5117851;27;20027;-74
2023/12/22 07:55:29;;;;;;;5.75;4.75;;;7.60;69.70;;;;;;5115275;28;20119;-73
2023/12/22 07:57:54;;;;;;;6.93;5.20;;;7.60;69.90;;;;;;5111106;28;20057;-75
2023/12/22 08:00:20;;;;;;;6.05;4.75;;;7.60;70.00;;;;;;5133157;27;20043;-73
2023/12/22 08:02:46;;;;;;;6.05;4.93;;;7.60;70.10;;;;;;5135535;27;20098;-73
2023/12/22 08:05:13;;;;;;;7.47;5.13;;;7.60;70.20;;;;;;5131355;27;20034;-74
2023/12/22 08:07:40;;;;;;;7.22;5.13;;;7.60;70.30;;;;;;5106758;28;20027;-76
2023/12/22 08:10:06;;;;;;;7.30;5.38;;;7.60;70.50;;;;;;5116661;28;20477;-75
2023/12/22 08:12:32;;;;;;;7.03;4.57;;;7.60;70.70;;;;;;5116451;28;20028;-80
2023/12/22 08:14:58;;;;;;;8.52;4.93;;;7.60;70.70;;;;;;5116473;28;20028;-75
2023/12/22 08:17:24;;;;;;;6.57;4.85;;;7.60;70.80;;;;;;5110071;27;20030;-74
2023/12/22 08:19:50;;;;;;;7.03;4.80;;;7.60;70.80;;;;;;5118711;27;20031;-73
2023/12/22 08:22:16;;;;;;;7.22;4.70;;;7.70;71.00;;;;;;5134835;27;20031;-75
2023/12/22 08:24:42;;;;;;;6.32;4.80;;;7.70;71.00;;;;;;5104239;28;20024;-74
2023/12/22 08:27:08;;;;;;;6.80;4.90;;;7.70;71.10;;;;;;5116588;28;20032;-73
2023/12/22 08:29:34;;;;;;;8.40;5.22;;;7.70;71.10;;;;;;5116653;28;20122;-75
2023/12/22 08:32:01;;;;;;;9.10;5.10;;;7.70;71.10;;;;;;5116373;28;20020;-75
2023/12/22 08:34:27;;;;;;;7.30;5.63;;;7.80;71.30;;;;;;5116470;28;20093;-73
2023/12/22 08:36:53;;;;;;;6.45;4.95;;;7.80;71.30;;;;;;5116317;28;20534;-74
2023/12/22 08:39:18;;;;;;;5.78;4.45;;;7.80;71.30;;;;;;5116586;27;20041;-74
2023/12/22 08:41:45;;;;;;;6.78;5.53;;;7.80;71.30;;;;;;5097473;28;20385;-75
2023/12/22 08:44:14;;;;;;;6.68;4.90;;;7.80;71.30;;;;;;5116008;28;20095;-73
2023/12/22 08:46:40;;;;;;;7.35;5.10;;;7.80;71.30;;;;;;5115981;28;20032;-74
2023/12/22 08:49:07;;;;;;;6.70;5.10;;;7.80;71.40;;;;;;5116483;28;20142;-74
2023/12/22 08:51:33;;;;;;;6.82;5.03;;;7.80;71.40;;;;;;5115775;28;20024;-77
2023/12/22 08:53:59;;;;;;;6.90;5.13;;;7.90;71.40;;;;;;5115645;28;20031;-74
2023/12/22 08:56:26;;;;;;;7.43;5.10;;;7.90;71.50;;;;;;5131469;27;20023;-77
2023/12/22 08:58:54;;;;;;;8.40;5.30;;;7.80;71.50;;;;;;5117988;27;20031;-75
2023/12/22 09:01:21;;;;;;;6.68;5.13;;;7.90;71.50;;;;;;5117835;27;20031;-75
2023/12/22 09:03:48;;;;;;;6.22;4.88;;;7.90;71.50;;;;;;5118034;27;20077;-74
2023/12/22 09:06:22;;;;;;;6.93;4.85;;;7.90;71.50;;;;;;5136092;27;20034;-75
2023/12/22 09:08:48;;;;;;;8.20;5.50;;;7.90;71.40;;;;;;5136024;27;20522;-75
2023/12/22 09:11:16;;;;;;;6.55;4.80;;;8.00;71.60;;;;;;5135857;27;20051;-75
2023/12/22 09:13:42;;;;;;;6.85;4.82;;;8.00;71.60;;;;;;5136207;27;20049;-75
2023/12/22 09:16:09;;;;;;;6.63;4.88;;;8.00;71.60;;;;;;5133984;27;20078;-75
2023/12/22 09:18:35;;;;;;;6.68;5.03;;;8.00;71.70;;;;;;5100104;27;20023;-74
2023/12/22 09:21:02;;;;;;;7.10;5.45;;;7.90;71.60;;;;;;5117478;27;20486;-75
2023/12/22 09:23:28;;;;;;;7.55;5.35;;;8.00;71.80;;;;;;5117036;27;20391;-74
2023/12/22 09:25:54;;;;;;;6.25;4.82;;;8.00;71.80;;;;;;5135722;27;20023;-74
2023/12/22 09:28:20;;;;;;;7.30;4.95;;;7.90;71.80;;;;;;5117119;27;20556;-76
2023/12/22 09:30:46;;;;;;;6.30;4.80;;;8.00;71.80;;;;;;5135554;27;20015;-74
2023/12/22 09:33:12;;;;;;;6.78;4.95;;;8.00;71.80;;;;;;5135303;27;20026;-76
2023/12/22 09:35:41;;;;;;;7.57;5.00;;;8.00;71.80;;;;;;5135398;27;20027;-75
2023/12/22 09:38:12;;;;;;;7.28;4.72;;;8.00;71.90;;;;;;5116703;27;20480;-75
2023/12/22 09:40:39;;;;;;;6.55;5.22;;;8.00;71.90;;;;;;5135067;27;20091;-75
2023/12/22 09:43:06;;;;;;;6.15;4.72;;;8.10;71.90;;;;;;5135121;27;20055;-75
2023/12/22 09:45:37;;;;;;;6.10;4.72;;;8.10;71.90;;;;;;5116637;27;20027;-75
2023/12/22 09:48:05;;;;;;;5.50;4.32;;;8.10;71.90;;;;;;5116910;27;20027;-75
2023/12/22 09:50:31;;;;;;;5.82;4.40;;;8.10;71.90;;;;;;5134960;27;20019;-76
2023/12/22 09:52:57;;;;;;;6.47;4.80;;;8.10;71.90;;;;;;5108984;28;20023;-74
2023/12/22 09:55:25;;;;;;;7.32;5.38;;;8.10;72.00;;;;;;5114736;28;20026;-76
2023/12/22 09:57:52;;;;;;;6.40;4.80;;;8.10;72.00;;;;;;5114424;28;20039;-76
2023/12/22 10:00:18;;;;;;;6.50;5.03;;;8.10;72.00;;;;;;5096068;28;20059;-74
2023/12/22 10:02:47;;;;;;;6.95;4.57;;;8.10;72.10;;;;;;5114380;28;20028;-75
2023/12/22 10:05:13;;;;;;;7.03;5.20;;;8.10;72.10;;;;;;5114333;28;20106;-75
2023/12/22 10:07:44;;;;;;;6.90;4.82;;;8.10;72.10;;;;;;5114410;28;20477;-74
2023/12/22 10:10:11;;;;;;;6.75;4.68;;;8.10;72.20;;;;;;5115197;28;20028;-76
2023/12/22 10:12:39;;;;;;;6.65;4.95;;;8.10;72.20;;;;;;5113233;28;20085;-75
2023/12/22 10:15:07;;;;;;;5.85;4.78;;;8.10;72.30;;;;;;5114526;28;20028;-75
2023/12/22 10:17:34;;;;;;;6.72;4.90;;;8.10;72.30;;;;;;5112580;28;20114;-74
2023/12/22 10:20:00;;;;;;;5.93;4.82;;;8.10;72.40;;;;;;5114517;28;20035;-75
2023/12/22 10:22:26;;;;;;;5.70;4.43;;;8.10;72.40;;;;;;5114441;28;20135;-74
2023/12/22 10:24:52;;;;;;;6.90;4.60;;;8.10;72.40;;;;;;5113949;28;20020;-73
2023/12/22 10:27:22;;;;;;;5.82;4.38;;;8.10;72.40;;;;;;5112629;28;20026;-73
2023/12/22 10:29:55;;;;;;;6.40;4.78;;;8.10;72.40;;;;;;5113206;28;20389;-73
2023/12/22 10:32:21;;;;;;;5.47;4.40;;;8.20;72.40;;;;;;5112491;28;20027;-74
2023/12/22 10:34:48;;;;;;;6.07;4.40;;;8.20;72.50;;;;;;5114387;28;20028;-76
2023/12/22 10:37:14;;;;;;;5.88;4.15;;;8.20;72.50;;;;;;5134596;28;20489;-75
2023/12/22 10:39:40;;;;;;;6.53;4.40;;;8.20;72.50;;;;;;5134654;28;20106;-74
2023/12/22 10:42:07;;;;;;;5.30;4.43;;;8.20;72.40;;;;;;5134466;27;20035;-75
2023/12/22 10:44:32;;;;;;;6.18;4.38;;;8.20;72.40;;;;;;5134445;27;20023;-75
2023/12/22 10:47:00;;;;;;;6.30;4.68;;;8.20;72.50;;;;;;5132788;28;20465;-75
2023/12/22 10:49:25;;;;;;;6.45;4.50;;;8.20;72.50;;;;;;5134387;27;20031;-73
2023/12/22 10:51:52;;;;;;;5.97;4.30;;;8.20;72.70;;;;;;5134905;28;20076;-75
2023/12/22 10:54:20;;;;;;;6.20;4.50;;;8.20;72.70;;;;;;5134642;27;20023;-75
2023/12/22 10:56:46;;;;;;;5.70;4.65;;;8.20;72.70;;;;;;5115560;28;20052;-74
2023/12/22 10:59:12;;;;;;;6.80;4.45;;;8.20;72.80;;;;;;5134291;27;20518;-75
2023/12/22 11:01:38;;;;;;;5.05;4.00;;;8.20;72.90;;;;;;5116226;27;20035;-75
2023/12/22 11:04:07;;;;;;;5.03;3.85;;;8.20;72.90;;;;;;5125282;28;20389;-74
2023/12/22 11:06:37;;;;;;;6.18;4.50;;;8.20;72.90;;;;;;5114070;28;20140;-73
2023/12/22 11:09:08;;;;;;;6.05;4.50;;;8.20;72.90;;;;;;5113839;28;20032;-75
2023/12/22 11:11:36;;;;;;;4.95;3.90;;;8.20;72.90;;;;;;5113755;28;20023;-76
2023/12/22 11:14:02;;;;;;;4.93;3.90;;;8.20;73.00;;;;;;5112625;28;20440;-78
2023/12/22 11:16:34;;;;;;;4.75;3.72;;;8.20;72.90;;;;;;5114324;28;20023;-75
2023/12/22 11:19:02;;;;;;;4.80;3.80;;;8.20;72.90;;;;;;5113985;28;20103;-78
2023/12/22 11:21:28;;;;;;;4.95;3.65;;;8.30;72.80;;;;;;5112518;28;20457;-79
2023/12/22 11:23:57;;;;;;;4.95;3.97;;;8.30;72.70;;;;;;5112483;28;20027;-79
2023/12/22 11:26:23;;;;;;;5.68;4.00;;;8.30;72.70;;;;;;5124578;28;20020;-77
2023/12/22 11:28:50;;;;;;;4.07;3.55;;;8.30;72.50;;;;;;5117077;27;20027;-79
2023/12/22 11:31:17;;;;;;;4.90;3.42;;;8.30;72.50;;;;;;5137945;27;20373;-80
2023/12/22 11:33:45;;;;;;;4.03;3.33;;;8.30;72.40;;;;;;5119484;27;20028;-75
2023/12/22 11:36:13;;;;;;;4.13;3.30;;;8.30;72.40;;;;;;5138175;27;20034;-79
2023/12/22 11:38:43;;;;;;;4.65;3.58;;;8.30;72.30;;;;;;5119448;27;20117;-75
2023/12/22 11:41:32;;;;;;;4.03;3.35;;;8.30;72.20;;;;;;5138119;27;20484;-74
2023/12/22 11:43:59;;;;;;;5.07;3.72;;;8.30;72.20;;;;;;5119450;27;20472;-75
2023/12/22 11:46:25;;;;;;;4.45;3.60;;;8.30;72.00;;;;;;5135868;27;20076;-77
2023/12/22 11:48:52;;;;;;;4.65;3.47;;;8.40;72.10;;;;;;5118916;27;20438;-77
2023/12/22 11:51:19;;;;;;;4.88;3.72;;;8.30;72.00;;;;;;5102846;27;20027;-75
2023/12/22 11:53:45;;;;;;;4.55;3.80;;;8.30;72.00;;;;;;5117328;27;20028;-77
2023/12/22 11:56:13;;;;;;;4.82;3.75;;;8.30;72.00;;;;;;5117323;27;20030;-79
2023/12/22 11:58:43;;;;;;;4.35;3.63;;;8.30;72.00;;;;;;5115826;27;20031;-79
2023/12/22 12:01:13;;;;;;;5.40;4.15;;;8.30;72.00;;;;;;5096930;27;20122;-77
2023/12/22 12:03:47;;;;;;;4.07;3.67;;;8.30;71.90;;;;;;5128761;27;20035;-75
2023/12/22 12:06:13;;;;;;;4.90;3.90;;;8.30;71.90;;;;;;5124518;27;20476;-77
2023/12/22 12:08:40;;;;;;;3.85;3.30;;;8.30;71.90;;;;;;5116420;28;20023;-77
2023/12/22 12:11:06;;;;;;;5.28;3.75;;;8.30;71.90;;;;;;5106456;28;20024;-78
2023/12/22 12:13:33;;;;;;;4.55;3.78;;;8.30;71.90;;;;;;5116357;27;20023;-78
2023/12/22 12:16:01;;;;;;;3.97;3.25;;;8.30;71.80;;;;;;5115278;28;20529;-78
2023/12/22 12:18:31;;;;;;;5.05;3.50;;;8.30;71.80;;;;;;5098088;28;20514;-77
2023/12/22 12:20:57;;;;;;;4.68;3.78;;;8.30;71.80;;;;;;5116587;28;20038;-76
2023/12/22 12:23:29;;;;;;;5.60;3.70;;;8.30;71.80;;;;;;5116448;28;20032;-77
2023/12/22 12:25:56;;;;;;;4.50;3.45;;;8.30;71.70;;;;;;5116113;28;20485;-77
2023/12/22 12:28:28;;;;;;;4.20;3.30;;;8.30;71.80;;;;;;5124326;27;20034;-77
2023/12/22 12:31:05;;;;;;;5.32;3.70;;;8.30;71.70;;;;;;5117558;27;20020;-83
2023/12/22 12:33:35;;;;;;;4.15;3.53;;;8.30;71.80;;;;;;5127935;27;20015;-80
2023/12/22 12:36:05;;;;;;;4.90;3.80;;;8.30;71.80;;;;;;5113504;27;20023;-79
2023/12/22 12:38:48;;;;;;;4.30;3.30;;;8.30;71.80;;;;;;5132769;27;20127;-76
2023/12/22 12:41:16;;;;;;;4.50;3.47;;;8.30;71.80;;;;;;5123237;27;20351;-76
2023/12/22 12:43:43;;;;;;;4.78;3.78;;;8.30;71.70;;;;;;5117511;27;20038;-77
2023/12/22 12:46:10;;;;;;;4.20;3.50;;;8.30;71.70;;;;;;5104659;28;20067;-77
2023/12/22 12:48:36;;;;;;;6.75;3.88;;;8.30;71.70;;;;;;5128127;27;20118;-76
2023/12/22 12:51:06;;;;;;;4.32;3.70;;;8.30;71.70;;;;;;5125790;27;20096;-79
2023/12/22 12:53:33;;;;;;;4.55;3.70;;;8.30;71.70;;;;;;5097512;28;20023;-77
2023/12/22 12:55:59;;;;;;;4.93;3.45;;;8.30;71.70;;;;;;5097322;28;20034;-77